Time;durP1;ratioP1;P1;durP2;ratioP2;P2;SDS_P1;SDS_P2;PMS_P1;PMS_P2;Temp;Humidity;BMP_temperature;BMP_pressure;BME280_temperature;BME280_humidity;BME280_pressure;Samples;Min_cycle;Max_cycle;Signal;HPM_P1;HPM_P2
2021/06/12 00:01:14;;;;;;;7.68;1.65;;;19.90;99.90;;;;;;5072868;28;20196;-80
2021/06/12 00:03:39;;;;;;;3.10;1.40;;;19.90;99.90;;;;;;5071659;28;20270;-85
2021/06/12 00:06:06;;;;;;;1.65;1.20;;;19.80;99.90;;;;;;5073101;28;20174;-85
2021/06/12 00:08:32;;;;;;;1.60;1.38;;;19.80;99.90;;;;;;5072054;28;20231;-80
2021/06/12 00:11:00;;;;;;;1.52;1.38;;;19.70;99.90;;;;;;5071481;28;20206;-82
2021/06/12 00:13:27;;;;;;;1.95;1.58;;;19.80;99.90;;;;;;5071928;28;20220;-81
2021/06/12 00:15:52;;;;;;;3.70;1.98;;;19.70;99.90;;;;;;5072293;28;20163;-82
2021/06/12 00:18:18;;;;;;;3.38;2.17;;;19.60;99.90;;;;;;5071395;28;20633;-82
2021/06/12 00:20:44;;;;;;;3.17;2.88;;;19.60;99.90;;;;;;5072426;28;20186;-81
2021/06/12 00:23:09;;;;;;;2.88;2.58;;;19.60;99.90;;;;;;5072597;28;20296;-80
2021/06/12 00:25:38;;;;;;;2.35;2.08;;;19.60;99.90;;;;;;5072763;28;20171;-83
2021/06/12 00:28:04;;;;;;;3.30;2.08;;;19.70;99.90;;;;;;5071943;28;20228;-82
2021/06/12 00:30:30;;;;;;;2.58;1.83;;;19.60;99.90;;;;;;5073649;28;20197;-80
2021/06/12 00:32:59;;;;;;;1.40;1.30;;;19.40;99.90;;;;;;5072383;28;20564;-81
2021/06/12 00:35:25;;;;;;;1.95;1.50;;;19.40;99.90;;;;;;5073359;28;20171;-81
2021/06/12 00:37:51;;;;;;;1.52;1.42;;;19.30;99.90;;;;;;5075494;28;20254;-80
2021/06/12 00:40:18;;;;;;;2.13;1.77;;;19.20;99.90;;;;;;5090749;28;20190;-79
2021/06/12 00:42:45;;;;;;;3.28;2.63;;;19.20;99.90;;;;;;5096081;28;20263;-80
2021/06/12 00:45:21;;;;;;;3.15;2.85;;;19.20;99.90;;;;;;5098744;28;20170;-80
2021/06/12 00:47:48;;;;;;;2.72;2.47;;;19.20;99.90;;;;;;5091533;28;20216;-80
2021/06/12 00:50:15;;;;;;;3.38;2.60;;;19.30;99.90;;;;;;5075893;28;20190;-80
2021/06/12 00:52:41;;;;;;;1.83;1.70;;;19.20;99.90;;;;;;5076790;28;20209;-81
2021/06/12 00:55:12;;;;;;;1.60;1.50;;;19.00;99.90;;;;;;5075736;28;20592;-82
2021/06/12 00:57:38;;;;;;;3.45;1.75;;;19.00;99.90;;;;;;5076376;28;20530;-86
2021/06/12 01:00:08;;;;;;;1.67;1.58;;;19.00;99.90;;;;;;5077158;28;20209;-81
2021/06/12 01:02:35;;;;;;;2.65;1.63;;;19.00;99.90;;;;;;5075421;28;20178;-80
2021/06/12 01:05:01;;;;;;;2.17;1.55;;;19.10;99.90;;;;;;5075028;28;20673;-80
2021/06/12 01:07:26;;;;;;;1.98;1.45;;;19.00;99.90;;;;;;5076644;28;20167;-81
2021/06/12 01:09:52;;;;;;;3.25;1.35;;;18.90;99.90;;;;;;5076367;28;20190;-80
2021/06/12 01:12:28;;;;;;;1.63;1.48;;;18.90;99.90;;;;;;5075306;28;20320;-81
2021/06/12 01:15:04;;;;;;;2.03;1.35;;;19.00;99.90;;;;;;5076256;28;20166;-82
2021/06/12 01:17:51;;;;;;;1.40;1.30;;;18.90;99.90;;;;;;5074552;28;20291;-82
2021/06/12 01:20:44;;;;;;;3.50;1.80;;;18.90;99.90;;;;;;5074499;28;20190;-81
2021/06/12 01:23:09;;;;;;;2.08;1.50;;;18.90;99.90;;;;;;5076306;28;20245;-82
2021/06/12 01:25:49;;;;;;;2.47;1.73;;;18.90;99.90;;;;;;5075479;28;20197;-82
2021/06/12 01:28:53;;;;;;;1.60;1.50;;;19.00;99.90;;;;;;5075206;28;20736;-81
2021/06/12 01:31:22;;;;;;;3.28;2.17;;;18.80;99.90;;;;;;5073399;28;20226;-81
2021/06/12 01:33:49;;;;;;;6.10;1.77;;;18.80;99.90;;;;;;5075650;28;20221;-82
2021/06/12 01:36:15;;;;;;;2.10;1.60;;;18.70;99.90;;;;;;5074549;28;20187;-81
2021/06/12 01:38:46;;;;;;;1.85;1.70;;;18.50;99.90;;;;;;5073939;28;20190;-81
2021/06/12 01:41:16;;;;;;;1.50;1.40;;;18.40;99.90;;;;;;5075160;28;20182;-84
2021/06/12 01:43:42;;;;;;;2.58;1.80;;;18.40;99.90;;;;;;5075357;28;20555;-83
2021/06/12 01:46:12;;;;;;;2.08;1.88;;;18.40;99.90;;;;;;5074018;28;20166;-82
2021/06/12 01:48:41;;;;;;;3.40;1.70;;;18.30;99.90;;;;;;5074268;28;20216;-83
2021/06/12 01:51:08;;;;;;;5.38;1.70;;;18.50;99.90;;;;;;5074058;28;20251;-81
2021/06/12 01:53:37;;;;;;;1.92;1.73;;;18.50;99.90;;;;;;5074949;28;20167;-82
2021/06/12 01:56:06;;;;;;;4.75;1.88;;;18.40;99.90;;;;;;5075308;28;20711;-82
2021/06/12 01:58:34;;;;;;;2.03;1.83;;;18.40;99.90;;;;;;5075200;28;20703;-81
2021/06/12 02:01:01;;;;;;;5.50;2.40;;;18.40;99.90;;;;;;5075358;28;20179;-85
2021/06/12 02:03:28;;;;;;;4.22;2.00;;;18.20;99.90;;;;;;5075277;28;20166;-83
2021/06/12 02:05:55;;;;;;;3.88;1.70;;;18.20;99.90;;;;;;5075329;28;20181;-81
2021/06/12 02:08:21;;;;;;;2.05;1.92;;;18.20;99.90;;;;;;5075123;28;20246;-83
2021/06/12 02:10:49;;;;;;;2.63;1.98;;;18.30;99.90;;;;;;5075033;28;20186;-82
2021/06/12 02:13:21;;;;;;;3.85;2.58;;;18.30;99.90;;;;;;5074128;28;20166;-82
2021/06/12 02:15:52;;;;;;;2.53;1.95;;;18.10;99.90;;;;;;5073655;28;20169;-83
2021/06/12 02:18:20;;;;;;;1.90;1.80;;;18.00;99.90;;;;;;5075014;28;20572;-81
2021/06/12 02:20:48;;;;;;;2.55;2.10;;;17.90;99.90;;;;;;5073416;28;20182;-84
2021/06/12 02:23:14;;;;;;;7.03;2.22;;;18.00;99.90;;;;;;5074515;28;20166;-81
2021/06/12 02:25:40;;;;;;;2.50;2.10;;;18.10;99.90;;;;;;5074541;28;20216;-81
2021/06/12 02:28:10;;;;;;;2.33;1.98;;;18.00;99.90;;;;;;5074231;28;20174;-81
2021/06/12 02:30:48;;;;;;;2.40;2.08;;;18.10;99.90;;;;;;5072615;28;20800;-82
2021/06/12 02:33:16;;;;;;;2.90;2.45;;;18.10;99.90;;;;;;5072767;28;20193;-82
2021/06/12 02:35:42;;;;;;;4.13;2.45;;;18.00;99.90;;;;;;5073300;28;20182;-81
2021/06/12 02:38:08;;;;;;;2.65;2.30;;;17.90;99.90;;;;;;5072867;28;20174;-81
2021/06/12 02:40:34;;;;;;;7.63;2.78;;;17.90;99.90;;;;;;5073090;28;20673;-82
2021/06/12 02:43:00;;;;;;;2.28;2.08;;;18.00;99.90;;;;;;5074335;28;20166;-85
2021/06/12 02:45:26;;;;;;;3.15;2.78;;;17.80;99.90;;;;;;5074332;28;20623;-84
2021/06/12 02:47:59;;;;;;;6.00;2.92;;;18.00;99.90;;;;;;5073996;28;20174;-84
2021/06/12 02:50:30;;;;;;;2.88;2.58;;;18.20;99.90;;;;;;5074019;28;20182;-81
2021/06/12 02:53:06;;;;;;;3.78;2.90;;;18.20;99.90;;;;;;5072833;28;20202;-81
2021/06/12 02:55:36;;;;;;;5.70;2.97;;;18.10;99.90;;;;;;5074839;28;20261;-80
2021/06/12 02:58:03;;;;;;;3.70;3.05;;;18.00;99.90;;;;;;5073677;28;20216;-81
2021/06/12 03:00:30;;;;;;;3.35;2.85;;;17.90;99.90;;;;;;5073621;28;20681;-80
2021/06/12 03:02:56;;;;;;;4.10;3.00;;;17.90;99.90;;;;;;5075350;28;20172;-83
2021/06/12 03:05:25;;;;;;;4.65;4.15;;;18.00;99.90;;;;;;5075325;28;20177;-81
2021/06/12 03:07:54;;;;;;;5.05;4.03;;;17.90;99.90;;;;;;5077806;28;20158;-80
2021/06/12 03:10:22;;;;;;;6.20;4.70;;;18.00;99.90;;;;;;5079016;28;20187;-83
2021/06/12 03:12:49;;;;;;;5.75;5.18;;;18.10;99.90;;;;;;5078733;28;20202;-82
2021/06/12 03:15:16;;;;;;;10.25;5.38;;;18.00;99.90;;;;;;5098657;28;20166;-81
2021/06/12 03:17:45;;;;;;;9.23;5.60;;;18.30;99.90;;;;;;5095330;28;20182;-81
2021/06/12 03:20:13;;;;;;;10.50;5.57;;;18.20;99.90;;;;;;5092391;28;20190;-83
2021/06/12 03:22:41;;;;;;;8.13;5.00;;;18.20;99.90;;;;;;5086420;28;20166;-83
2021/06/12 03:25:07;;;;;;;7.78;5.95;;;18.30;99.90;;;;;;5075983;28;20728;-81
2021/06/12 03:27:33;;;;;;;8.95;6.53;;;18.20;99.90;;;;;;5075244;28;20172;-85
2021/06/12 03:30:00;;;;;;;10.82;6.22;;;18.30;99.90;;;;;;5073688;28;20662;-83
2021/06/12 03:32:27;;;;;;;14.43;8.30;;;18.20;99.90;;;;;;5073389;28;20202;-83
2021/06/12 03:34:53;;;;;;;10.07;6.82;;;18.10;99.90;;;;;;5074815;28;20231;-83
2021/06/12 03:37:20;;;;;;;9.57;7.50;;;18.10;99.90;;;;;;5074557;28;20170;-84
2021/06/12 03:39:46;;;;;;;10.77;8.13;;;18.10;99.90;;;;;;5072850;28;20182;-83
2021/06/12 03:42:12;;;;;;;11.65;8.98;;;18.00;99.90;;;;;;5072314;28;20204;-82
2021/06/12 03:44:38;;;;;;;9.65;8.65;;;18.00;99.90;;;;;;5072222;28;20626;-82
2021/06/12 03:47:06;;;;;;;12.55;9.07;;;17.90;99.90;;;;;;5074098;28;20235;-83
2021/06/12 03:49:32;;;;;;;12.13;9.05;;;18.00;99.90;;;;;;5072176;28;20442;-81
2021/06/12 03:51:59;;;;;;;13.77;9.52;;;18.10;99.90;;;;;;5073728;28;20241;-82
2021/06/12 03:54:25;;;;;;;18.80;10.43;;;18.10;99.90;;;;;;5073838;28;20551;-82
2021/06/12 03:56:51;;;;;;;13.27;10.10;;;18.10;99.90;;;;;;5073898;28;20182;-81
2021/06/12 03:59:17;;;;;;;11.63;9.30;;;18.20;99.90;;;;;;5073674;28;20159;-83
2021/06/12 04:01:43;;;;;;;18.08;10.23;;;18.20;99.90;;;;;;5073422;28;20186;-85
2021/06/12 04:04:09;;;;;;;15.02;10.13;;;18.00;99.90;;;;;;5072374;28;20174;-83
2021/06/12 04:06:34;;;;;;;12.23;9.90;;;18.00;99.90;;;;;;5072459;28;20610;-84
2021/06/12 04:09:00;;;;;;;26.63;10.95;;;18.00;99.90;;;;;;5072250;28;20170;-81
2021/06/12 04:11:26;;;;;;;16.58;9.95;;;18.10;99.90;;;;;;5073765;28;20558;-82
2021/06/12 04:13:53;;;;;;;15.07;10.05;;;18.00;99.90;;;;;;5074882;28;20634;-81
2021/06/12 04:16:19;;;;;;;19.27;10.10;;;18.20;99.90;;;;;;5076727;28;20173;-81
2021/06/12 04:18:44;;;;;;;13.45;10.18;;;18.10;99.90;;;;;;5077768;28;20162;-82
2021/06/12 04:21:10;;;;;;;12.40;9.63;;;18.20;99.90;;;;;;5076768;28;20243;-84
2021/06/12 04:23:36;;;;;;;13.77;9.38;;;18.10;99.90;;;;;;5078579;28;20177;-81
2021/06/12 04:26:01;;;;;;;18.55;10.50;;;18.10;99.90;;;;;;5076732;28;20217;-82
2021/06/12 04:28:27;;;;;;;15.25;10.60;;;18.20;99.90;;;;;;5078514;28;20185;-83
2021/06/12 04:30:53;;;;;;;17.08;10.98;;;18.20;99.90;;;;;;5076682;28;20190;-85
2021/06/12 04:33:19;;;;;;;15.82;10.68;;;18.10;99.90;;;;;;5077729;28;20528;-84
2021/06/12 04:35:45;;;;;;;18.25;11.23;;;18.10;99.90;;;;;;5076858;28;20817;-84
2021/06/12 04:38:11;;;;;;;16.27;11.25;;;18.10;99.90;;;;;;5076714;28;20170;-82
2021/06/12 04:40:37;;;;;;;18.38;11.73;;;18.00;99.90;;;;;;5077824;28;20182;-83
2021/06/12 04:43:07;;;;;;;20.40;12.45;;;18.20;99.90;;;;;;5077118;28;20225;-83
2021/06/12 04:45:33;;;;;;;19.63;12.57;;;18.20;99.90;;;;;;5076031;28;20190;-82
2021/06/12 04:48:00;;;;;;;22.60;11.93;;;18.30;99.90;;;;;;5077064;28;20171;-82
2021/06/12 04:50:28;;;;;;;19.85;11.48;;;18.20;99.90;;;;;;5076145;28;20554;-84
2021/06/12 04:52:54;;;;;;;19.05;11.48;;;18.20;99.90;;;;;;5075619;28;20214;-85
2021/06/12 04:55:19;;;;;;;30.85;12.63;;;18.30;99.90;;;;;;5078057;28;20530;-83
2021/06/12 04:57:46;;;;;;;22.73;12.85;;;18.30;99.90;;;;;;5078295;28;20249;-84
2021/06/12 05:00:13;;;;;;;16.55;11.98;;;18.40;99.90;;;;;;5076395;28;20715;-81
2021/06/12 05:02:39;;;;;;;18.08;12.23;;;18.50;99.90;;;;;;5076231;28;20171;-83
2021/06/12 05:05:06;;;;;;;17.42;11.45;;;18.60;99.90;;;;;;5076113;28;20301;-83
2021/06/12 05:07:32;;;;;;;15.32;11.25;;;18.60;99.90;;;;;;5077727;28;20572;-83
2021/06/12 05:09:58;;;;;;;20.90;11.07;;;18.30;99.90;;;;;;5076012;28;20190;-83
2021/06/12 05:12:24;;;;;;;16.83;10.93;;;18.40;99.90;;;;;;5075516;28;20301;-81
2021/06/12 05:14:52;;;;;;;17.70;12.02;;;18.40;99.90;;;;;;5076890;28;20212;-84
2021/06/12 05:17:19;;;;;;;17.65;11.48;;;18.60;99.90;;;;;;5076781;28;20171;-83
2021/06/12 05:19:45;;;;;;;18.52;11.38;;;18.60;99.90;;;;;;5076695;28;20619;-82
2021/06/12 05:22:10;;;;;;;15.35;11.40;;;18.50;99.90;;;;;;5077031;28;20173;-83
2021/06/12 05:24:36;;;;;;;18.00;12.73;;;18.30;99.90;;;;;;5077930;28;20163;-82
2021/06/12 05:27:05;;;;;;;22.02;12.23;;;18.30;99.90;;;;;;5077622;28;20178;-83
2021/06/12 05:29:31;;;;;;;23.63;12.27;;;18.40;99.90;;;;;;5076935;28;20171;-82
2021/06/12 05:31:57;;;;;;;16.65;11.60;;;18.40;99.90;;;;;;5077452;28;20685;-85
2021/06/12 05:34:23;;;;;;;16.73;11.18;;;18.40;99.90;;;;;;5076676;28;20174;-81
2021/06/12 05:36:48;;;;;;;17.95;11.57;;;18.30;99.90;;;;;;5075946;28;20178;-85
2021/06/12 05:39:15;;;;;;;17.83;12.10;;;18.40;99.90;;;;;;5076091;28;20186;-82
2021/06/12 05:41:41;;;;;;;19.23;12.00;;;18.40;99.90;;;;;;5076535;28;20186;-82
2021/06/12 05:44:07;;;;;;;20.42;12.40;;;18.40;99.90;;;;;;5081498;28;20174;-81
2021/06/12 05:46:35;;;;;;;17.88;12.18;;;18.50;99.90;;;;;;5077328;28;20170;-81
2021/06/12 05:49:01;;;;;;;18.05;12.25;;;18.40;99.90;;;;;;5085674;28;20190;-83
2021/06/12 05:51:27;;;;;;;23.92;11.98;;;18.40;99.90;;;;;;5098207;28;20197;-83
2021/06/12 05:53:53;;;;;;;18.48;13.32;;;18.20;99.90;;;;;;5081025;28;20175;-82
2021/06/12 05:56:20;;;;;;;26.60;12.13;;;18.30;99.90;;;;;;5079209;28;20223;-82
2021/06/12 05:58:46;;;;;;;23.85;12.43;;;18.40;99.90;;;;;;5078207;28;20162;-85
2021/06/12 06:01:12;;;;;;;17.73;11.77;;;18.40;99.90;;;;;;5077872;28;20199;-86
2021/06/12 06:03:38;;;;;;;21.27;13.25;;;18.30;99.90;;;;;;5078196;28;20170;-84
2021/06/12 06:06:06;;;;;;;16.00;12.02;;;18.30;99.90;;;;;;5075952;28;20171;-80
2021/06/12 06:08:32;;;;;;;19.20;12.50;;;18.50;99.90;;;;;;5076924;28;20162;-82
2021/06/12 06:10:58;;;;;;;20.95;12.65;;;18.50;99.90;;;;;;5074048;28;20568;-84
2021/06/12 06:13:24;;;;;;;19.63;12.85;;;18.70;99.90;;;;;;5076281;28;20159;-82
2021/06/12 06:15:49;;;;;;;20.85;13.40;;;18.90;99.90;;;;;;5076738;28;20580;-83
2021/06/12 06:18:15;;;;;;;19.65;14.23;;;18.90;99.90;;;;;;5074734;28;20167;-78
2021/06/12 06:20:42;;;;;;;16.52;13.13;;;18.90;99.90;;;;;;5075155;28;20239;-78
2021/06/12 06:23:08;;;;;;;23.45;13.40;;;19.00;99.90;;;;;;5075114;28;20193;-78
2021/06/12 06:25:34;;;;;;;17.92;12.70;;;19.00;99.90;;;;;;5075680;28;20170;-78
2021/06/12 06:27:59;;;;;;;17.58;12.35;;;19.00;99.90;;;;;;5075409;28;20169;-77
2021/06/12 06:30:25;;;;;;;20.58;12.95;;;18.90;99.90;;;;;;5075630;28;20182;-78
2021/06/12 06:32:51;;;;;;;18.33;13.23;;;19.10;99.90;;;;;;5074778;28;20297;-78
2021/06/12 06:35:17;;;;;;;18.10;12.35;;;19.00;99.90;;;;;;5075201;28;20174;-82
2021/06/12 06:37:43;;;;;;;17.23;12.63;;;18.90;99.90;;;;;;5074856;28;20181;-80
2021/06/12 06:40:10;;;;;;;18.05;13.35;;;19.00;99.90;;;;;;5072924;28;20256;-83
2021/06/12 06:42:36;;;;;;;17.25;13.50;;;19.10;99.90;;;;;;5076049;28;20174;-86
2021/06/12 06:45:03;;;;;;;16.60;12.52;;;19.00;99.90;;;;;;5087937;28;20226;-80
2021/06/12 06:47:29;;;;;;;17.10;12.55;;;19.10;99.90;;;;;;5086445;28;20171;-82
2021/06/12 06:49:55;;;;;;;19.73;12.93;;;19.30;99.90;;;;;;5085509;28;20194;-79
2021/06/12 06:52:21;;;;;;;18.52;12.88;;;19.40;99.90;;;;;;5085991;28;20210;-77
2021/06/12 06:54:46;;;;;;;26.42;13.05;;;19.40;99.90;;;;;;5084546;28;20167;-78
2021/06/12 06:57:12;;;;;;;17.25;14.07;;;19.20;99.90;;;;;;5085382;28;20183;-78
2021/06/12 06:59:38;;;;;;;15.45;12.82;;;19.30;99.90;;;;;;5075684;28;20649;-78
2021/06/12 07:02:03;;;;;;;24.52;14.10;;;19.40;99.90;;;;;;5074093;28;20171;-79
2021/06/12 07:04:31;;;;;;;19.80;14.82;;;19.40;99.90;;;;;;5074087;28;20650;-79
2021/06/12 07:06:57;;;;;;;22.25;14.00;;;19.20;99.90;;;;;;5074197;28;20201;-79
2021/06/12 07:09:24;;;;;;;19.35;15.02;;;19.20;99.90;;;;;;5072543;28;20223;-79
2021/06/12 07:11:53;;;;;;;18.30;14.15;;;19.10;99.90;;;;;;5073758;28;20230;-78
2021/06/12 07:14:18;;;;;;;22.95;14.45;;;19.10;99.90;;;;;;5073528;28;20174;-79
2021/06/12 07:16:44;;;;;;;16.58;14.23;;;19.10;99.90;;;;;;5071466;28;20166;-79
2021/06/12 07:19:10;;;;;;;17.60;14.52;;;19.00;99.90;;;;;;5071979;28;20170;-79
2021/06/12 07:21:35;;;;;;;19.77;15.10;;;19.20;99.90;;;;;;5073313;28;20259;-79
2021/06/12 07:24:01;;;;;;;20.65;15.57;;;19.30;99.90;;;;;;5073138;28;20629;-80
2021/06/12 07:26:27;;;;;;;21.00;15.63;;;19.30;99.90;;;;;;5072923;28;20154;-79
2021/06/12 07:28:52;;;;;;;20.85;15.82;;;19.20;99.90;;;;;;5072896;28;20269;-79
2021/06/12 07:31:18;;;;;;;18.65;14.75;;;19.20;99.90;;;;;;5072956;28;20198;-79
2021/06/12 07:33:44;;;;;;;15.93;14.25;;;19.30;99.90;;;;;;5073196;28;20239;-79
2021/06/12 07:36:09;;;;;;;23.95;16.73;;;19.30;99.90;;;;;;5073266;28;20167;-79
2021/06/12 07:38:35;;;;;;;22.15;16.25;;;19.40;99.90;;;;;;5072922;28;20182;-79
2021/06/12 07:41:01;;;;;;;16.88;14.55;;;19.40;99.90;;;;;;5074793;28;20197;-79
2021/06/12 07:43:27;;;;;;;19.42;14.85;;;19.30;99.90;;;;;;5075194;28;20166;-79
2021/06/12 07:45:52;;;;;;;23.48;15.18;;;19.60;99.90;;;;;;5075405;28;20518;-79
2021/06/12 07:48:18;;;;;;;21.42;15.70;;;19.70;99.90;;;;;;5072950;28;20166;-79
2021/06/12 07:50:44;;;;;;;23.90;15.73;;;19.60;99.90;;;;;;5073050;28;20194;-79
2021/06/12 07:53:10;;;;;;;18.17;14.52;;;19.70;99.90;;;;;;5081682;28;20202;-79
2021/06/12 07:55:36;;;;;;;23.38;15.73;;;19.70;99.90;;;;;;5075542;28;20174;-79
2021/06/12 07:58:02;;;;;;;17.02;13.98;;;19.60;99.90;;;;;;5102579;22;20217;-80
2021/06/12 08:00:28;;;;;;;23.27;15.23;;;19.50;99.90;;;;;;5092543;28;20193;-90
2021/06/12 08:02:54;;;;;;;19.83;14.77;;;19.50;99.90;;;;;;5092047;28;20256;-89
2021/06/12 08:05:20;;;;;;;16.50;14.52;;;19.60;99.90;;;;;;5090976;28;20256;-88
2021/06/12 08:07:46;;;;;;;16.17;14.57;;;19.70;99.90;;;;;;5075630;28;20646;-88
2021/06/12 08:10:11;;;;;;;18.58;14.68;;;19.70;99.90;;;;;;5092596;28;20182;-88
2021/06/12 08:12:40;;;;;;;17.48;14.88;;;20.10;99.90;;;;;;5092766;28;20244;-87
2021/06/12 08:15:06;;;;;;;22.88;15.02;;;20.10;99.90;;;;;;5092362;28;20205;-87
2021/06/12 08:17:32;;;;;;;21.67;15.55;;;19.90;99.90;;;;;;5092490;28;20190;-88
2021/06/12 08:19:58;;;;;;;23.70;15.88;;;19.90;99.90;;;;;;5092514;28;20196;-88
2021/06/12 08:22:23;;;;;;;22.30;15.60;;;19.90;99.90;;;;;;5092779;28;20174;-87
2021/06/12 08:24:50;;;;;;;14.80;13.30;;;20.10;99.90;;;;;;5092385;28;20162;-88
2021/06/12 08:27:17;;;;;;;18.52;13.60;;;20.20;99.90;;;;;;5092793;28;20165;-88
2021/06/12 08:29:43;;;;;;;17.33;14.73;;;20.20;99.90;;;;;;5092336;28;20258;-88
2021/06/12 08:32:10;;;;;;;17.70;13.85;;;20.20;99.90;;;;;;5092408;28;20217;-88
2021/06/12 08:34:39;;;;;;;14.38;12.82;;;20.50;99.90;;;;;;5093092;28;20170;-87
2021/06/12 08:37:07;;;;;;;15.30;13.85;;;20.50;99.90;;;;;;5092755;28;20170;-88
2021/06/12 08:39:53;;;;;;;15.07;13.55;;;20.60;99.90;;;;;;5092300;28;20181;-88
2021/06/12 08:42:19;;;;;;;14.85;13.27;;;20.80;99.90;;;;;;5093383;28;20291;-89
2021/06/12 08:44:45;;;;;;;19.70;13.23;;;20.60;99.90;;;;;;5092547;28;20232;-88
2021/06/12 08:47:11;;;;;;;13.18;11.88;;;20.50;99.90;;;;;;5092639;28;20170;-88
2021/06/12 08:49:41;;;;;;;14.57;13.15;;;20.40;99.90;;;;;;5092259;28;20219;-88
2021/06/12 08:52:07;;;;;;;17.13;13.50;;;20.40;99.90;;;;;;5092431;28;20193;-88
2021/06/12 08:54:33;;;;;;;18.20;13.23;;;20.60;99.90;;;;;;5092547;28;20184;-88
2021/06/12 08:56:59;;;;;;;14.55;13.10;;;21.10;99.90;;;;;;5092438;28;20190;-88
2021/06/12 08:59:27;;;;;;;13.23;11.80;;;21.10;99.90;;;;;;5092278;28;20227;-88
2021/06/12 09:01:53;;;;;;;12.05;11.00;;;21.20;99.90;;;;;;5092772;28;20192;-89
2021/06/12 09:04:42;;;;;;;13.32;12.13;;;21.50;99.90;;;;;;5094886;28;20527;-88
2021/06/12 09:07:35;;;;;;;12.07;11.02;;;21.50;99.90;;;;;;5096803;28;20181;-93
2021/06/12 09:10:00;;;;;;;12.35;11.25;;;21.80;99.90;;;;;;5102816;28;20653;-94
2021/06/12 09:12:47;;;;;;;21.92;11.27;;;21.90;99.90;;;;;;5097707;28;20193;-95
2021/06/12 09:15:16;;;;;;;18.00;11.88;;;21.70;99.90;;;;;;5097458;28;20227;-94
2021/06/12 09:17:50;;;;;;;11.55;10.45;;;21.80;99.90;;;;;;5098923;28;20162;-95
2021/06/12 09:20:36;;;;;;;15.73;13.70;;;22.00;99.90;;;;;;5097746;28;20212;-96
2021/06/12 09:23:10;;;;;;;22.80;14.10;;;21.90;99.90;;;;;;5096885;28;20194;-94
2021/06/12 09:25:56;;;;;;;15.35;11.82;;;21.60;99.90;;;;;;5096944;28;20228;-96
2021/06/12 09:28:22;;;;;;;14.15;11.25;;;21.80;99.90;;;;;;5097875;28;20173;-95
2021/06/12 09:30:47;;;;;;;13.32;11.90;;;22.00;99.90;;;;;;5096732;28;20545;-93
2021/06/12 09:33:13;;;;;;;11.48;10.57;;;22.30;99.90;;;;;;5098516;28;20738;-94
2021/06/12 09:35:41;;;;;;;12.90;11.70;;;22.50;99.90;;;;;;5096701;28;20162;-94
2021/06/12 09:38:31;;;;;;;18.35;12.88;;;22.30;99.90;;;;;;5096590;28;20166;-95
2021/06/12 09:40:56;;;;;;;13.43;12.02;;;22.10;99.90;;;;;;5097306;28;20194;-94
2021/06/12 09:43:30;;;;;;;12.82;11.20;;;21.80;99.90;;;;;;5097000;28;20172;-92
2021/06/12 09:45:56;;;;;;;14.00;12.60;;;21.60;99.90;;;;;;5098589;28;20173;-93
2021/06/12 09:48:25;;;;;;;20.63;13.43;;;21.30;99.90;;;;;;5096298;28;20162;-89
2021/06/12 09:51:15;;;;;;;19.08;13.43;;;21.40;99.90;;;;;;5097212;28;20190;-91
2021/06/12 09:53:49;;;;;;;13.55;12.20;;;21.50;99.90;;;;;;5096013;28;20189;-91
2021/06/12 09:56:16;;;;;;;18.27;12.52;;;21.50;99.90;;;;;;5095764;28;20173;-91
2021/06/12 09:58:41;;;;;;;16.70;13.40;;;21.50;99.90;;;;;;5097354;28;20173;-89
2021/06/12 10:01:13;;;;;;;13.35;12.05;;;21.80;99.90;;;;;;5095666;28;20268;-90
2021/06/12 10:03:39;;;;;;;14.20;12.68;;;22.00;99.90;;;;;;5096136;28;20645;-91
2021/06/12 10:06:12;;;;;;;13.45;12.15;;;22.50;99.90;;;;;;5096359;28;20249;-95
2021/06/12 10:08:45;;;;;;;14.82;12.63;;;22.80;99.90;;;;;;5096518;28;20173;-93
2021/06/12 10:11:12;;;;;;;14.68;12.98;;;23.00;99.90;;;;;;5095668;28;20182;-91
2021/06/12 10:13:39;;;;;;;14.57;13.13;;;22.90;99.90;;;;;;5095373;28;20268;-92
2021/06/12 10:16:05;;;;;;;14.18;12.80;;;23.00;99.90;;;;;;5095270;28;20668;-92
2021/06/12 10:18:32;;;;;;;18.10;12.35;;;23.00;99.90;;;;;;5078629;28;20209;-91
2021/06/12 10:20:59;;;;;;;16.17;11.95;;;23.30;99.90;;;;;;5095581;28;20193;-92
2021/06/12 10:23:25;;;;;;;12.70;11.40;;;23.40;99.90;;;;;;5095770;28;20541;-91
2021/06/12 10:25:52;;;;;;;12.50;11.27;;;23.60;99.90;;;;;;5095199;28;20166;-92
2021/06/12 10:28:21;;;;;;;12.55;11.40;;;23.50;99.90;;;;;;5097328;28;20169;-92
2021/06/12 10:30:47;;;;;;;17.45;12.30;;;23.60;99.90;;;;;;5095448;28;20181;-92
2021/06/12 10:33:20;;;;;;;21.83;12.70;;;23.80;99.90;;;;;;5096356;28;20292;-94
2021/06/12 10:35:49;;;;;;;19.92;11.30;;;24.10;99.90;;;;;;5095982;28;20644;-91
2021/06/12 10:38:16;;;;;;;11.88;10.88;;;24.10;99.90;;;;;;5094779;28;20231;-87
2021/06/12 10:40:53;;;;;;;10.52;9.55;;;24.00;99.90;;;;;;5093779;28;20217;-85
2021/06/12 10:43:25;;;;;;;12.90;11.60;;;23.90;99.90;;;;;;5093382;28;20257;-86
2021/06/12 10:46:06;;;;;;;15.50;12.80;;;24.10;99.90;;;;;;5093189;28;20215;-84
2021/06/12 10:48:41;;;;;;;13.88;12.48;;;24.50;99.90;;;;;;5093415;28;20162;-84
2021/06/12 10:51:12;;;;;;;16.88;12.50;;;24.70;99.90;;;;;;5092807;28;20196;-84
2021/06/12 10:53:40;;;;;;;14.50;10.95;;;24.50;99.90;;;;;;5092596;28;20177;-83
2021/06/12 10:56:08;;;;;;;19.20;13.95;;;24.30;99.90;;;;;;5092724;28;20223;-83
2021/06/12 10:58:34;;;;;;;15.27;12.75;;;23.90;99.90;;;;;;5097051;28;20193;-83
2021/06/12 11:01:15;;;;;;;23.35;13.73;;;23.80;99.90;;;;;;5094379;28;20189;-83
2021/06/12 11:03:46;;;;;;;22.45;13.55;;;24.10;99.90;;;;;;5093975;28;20411;-84
2021/06/12 11:09:34;;;;;;;12.50;9.02;;;23.90;99.90;;;;;;5093891;28;20174;-83
2021/06/12 11:12:03;;;;;;;7.90;7.10;;;23.50;99.90;;;;;;5092764;28;20213;-83
2021/06/12 11:14:34;;;;;;;13.98;7.55;;;23.50;99.90;;;;;;5092811;28;20193;-83
2021/06/12 11:17:09;;;;;;;11.23;6.88;;;23.90;99.90;;;;;;5092662;28;20165;-83
2021/06/12 11:19:39;;;;;;;6.47;5.97;;;24.10;99.90;;;;;;5080630;28;20196;-82
2021/06/12 11:22:32;;;;;;;8.15;6.75;;;23.90;99.90;;;;;;5074305;28;20177;-93
2021/06/12 11:25:24;;;;;;;6.68;6.07;;;24.10;99.90;;;;;;5071748;28;20178;-85
2021/06/12 11:28:14;;;;;;;6.60;6.00;;;24.30;99.90;;;;;;5075596;28;20178;-85
2021/06/12 11:30:40;;;;;;;10.80;7.05;;;24.20;99.90;;;;;;5091389;28;20193;-82
2021/06/12 11:33:06;;;;;;;6.55;5.90;;;23.70;99.90;;;;;;5093155;28;20305;-83
2021/06/12 11:35:47;;;;;;;7.40;6.32;;;23.50;99.90;;;;;;5038574;28;20248;-83
2021/06/12 11:38:33;;;;;;;6.97;6.43;;;23.60;99.90;;;;;;5083807;28;20178;-84
2021/06/12 11:41:07;;;;;;;8.80;6.35;;;24.00;99.90;;;;;;5071243;28;20209;-82
2021/06/12 11:43:42;;;;;;;6.22;5.07;;;24.30;99.90;;;;;;5090728;28;20150;-87
2021/06/12 11:46:15;;;;;;;6.15;5.65;;;24.50;99.90;;;;;;5093185;28;20158;-90
2021/06/12 11:48:46;;;;;;;7.00;6.40;;;24.60;99.90;;;;;;5090672;28;20170;-88
2021/06/12 11:51:21;;;;;;;6.22;5.63;;;24.80;99.90;;;;;;5084950;28;20266;-83
2021/06/12 11:54:13;;;;;;;7.65;6.03;;;24.70;99.90;;;;;;5073710;28;20174;-84
2021/06/12 11:56:48;;;;;;;5.68;5.28;;;24.70;99.90;;;;;;5075086;28;20202;-84
2021/06/12 11:59:17;;;;;;;6.40;5.85;;;24.70;99.90;;;;;;5074005;28;20200;-85
2021/06/12 12:02:05;;;;;;;8.20;7.43;;;24.40;99.90;;;;;;5073048;28;20186;-84
2021/06/12 12:04:42;;;;;;;6.25;5.75;;;24.20;99.90;;;;;;5073781;28;20178;-84
2021/06/12 12:07:13;;;;;;;6.32;5.35;;;24.20;99.90;;;;;;5072365;28;20705;-85
2021/06/12 12:09:47;;;;;;;5.75;5.25;;;24.30;99.90;;;;;;5072979;28;20173;-84
2021/06/12 12:12:18;;;;;;;5.45;4.75;;;24.50;99.90;;;;;;5071600;28;20213;-85
2021/06/12 12:14:46;;;;;;;6.22;5.72;;;24.80;99.90;;;;;;5072038;28;20177;-84
2021/06/12 12:17:29;;;;;;;8.23;5.70;;;24.60;99.90;;;;;;5071723;28;20163;-84
2021/06/12 12:20:01;;;;;;;6.10;5.47;;;23.90;99.90;;;;;;5074942;28;20185;-87
2021/06/12 12:22:54;;;;;;;12.70;6.63;;;23.90;99.90;;;;;;5075834;28;20197;-90
2021/06/12 12:25:27;;;;;;;6.57;5.65;;;24.30;99.90;;;;;;5070824;28;20197;-93
2021/06/12 12:28:08;;;;;;;5.80;5.25;;;24.10;99.90;;;;;;5073970;28;20593;-93
2021/06/12 12:30:34;;;;;;;5.88;5.28;;;23.80;99.90;;;;;;5073752;28;20197;-91
2021/06/12 12:33:12;;;;;;;12.70;5.78;;;23.60;99.90;;;;;;5081725;28;20205;-92
2021/06/12 12:35:38;;;;;;;5.43;4.93;;;23.40;99.90;;;;;;5080212;28;20170;-95
2021/06/12 12:38:16;;;;;;;5.90;5.40;;;23.20;99.90;;;;;;5078620;28;20172;-96
2021/06/12 12:40:43;;;;;;;5.28;4.72;;;23.60;99.90;;;;;;5080901;28;20185;-96
2021/06/12 12:43:11;;;;;;;6.82;5.22;;;23.90;99.90;;;;;;5081959;28;20605;-95
2021/06/12 12:45:37;;;;;;;6.28;4.30;;;24.20;99.90;;;;;;5081308;28;20317;-96
2021/06/12 12:48:03;;;;;;;5.55;4.40;;;24.70;99.90;;;;;;5083321;28;20217;-95